Time;durP1;ratioP1;P1;durP2;ratioP2;P2;SDS_P1;SDS_P2;PMS_P1;PMS_P2;Temp;Humidity;BMP_temperature;BMP_pressure;BME280_temperature;BME280_humidity;BME280_pressure;Samples;Min_cycle;Max_cycle;Signal;HPM_P1;HPM_P2
2024/01/20 00:00:43;;;;;;;13.57;10.18;;;;;;;0.64;58.77;100675.06;4303997;33;20147;-76
2024/01/20 00:03:13;;;;;;;16.95;10.15;;;;;;;0.56;59.03;100683.00;4304015;33;20166;-76
2024/01/20 00:05:42;;;;;;;16.83;10.77;;;;;;;0.82;58.23;100690.41;4303998;33;20423;-76
2024/01/20 00:08:12;;;;;;;12.85;10.13;;;;;;;0.80;58.54;100686.97;4304485;33;20151;-76
2024/01/20 00:10:41;;;;;;;13.40;9.13;;;;;;;0.81;58.16;100682.59;4303838;33;20147;-76
2024/01/20 00:13:14;;;;;;;15.55;10.38;;;;;;;0.65;58.81;100687.22;4299313;28;20502;-76
2024/01/20 00:15:47;;;;;;;16.67;10.57;;;;;;;0.84;57.99;100701.69;4288894;33;20180;-76
2024/01/20 00:18:17;;;;;;;19.58;11.15;;;;;;;0.83;57.97;100699.06;4288918;33;20176;-76
2024/01/20 00:20:47;;;;;;;14.65;9.80;;;;;;;0.86;58.21;100696.44;4289100;33;20506;-76
2024/01/20 00:23:16;;;;;;;15.48;10.77;;;;;;;0.65;58.55;100698.50;4289553;33;20171;-76
2024/01/20 00:25:46;;;;;;;16.77;10.60;;;;;;;0.45;59.26;100705.78;4289261;33;20369;-76
2024/01/20 00:28:17;;;;;;;13.95;10.70;;;;;;;0.23;60.08;100707.81;4289263;33;20191;-77
2024/01/20 00:30:50;;;;;;;17.35;9.95;;;;;;;0.41;59.71;100707.56;4289313;33;20164;-77
2024/01/20 00:33:20;;;;;;;15.10;10.40;;;;;;;0.59;59.33;100709.00;4288184;33;20159;-76
2024/01/20 00:35:50;;;;;;;16.45;10.30;;;;;;;0.18;60.65;100707.03;4289315;33;20176;-76
2024/01/20 00:38:20;;;;;;;14.10;12.30;;;;;;;0.28;60.28;100712.97;4289519;33;20140;-77
2024/01/20 00:40:49;;;;;;;17.55;11.63;;;;;;;0.15;60.64;100713.12;4289142;33;20151;-77
2024/01/20 00:43:19;;;;;;;15.48;11.43;;;;;;;0.29;60.27;100715.56;4293264;28;20135;-76
2024/01/20 00:45:52;;;;;;;19.25;10.70;;;;;;;0.29;60.26;100712.97;4288884;33;20175;-76
2024/01/20 00:48:21;;;;;;;15.68;11.07;;;;;;;0.04;60.95;100719.38;4293827;33;20147;-76
2024/01/20 00:50:51;;;;;;;15.60;9.90;;;;;;;0.10;60.92;100711.47;4304770;33;20127;-76
2024/01/20 00:53:20;;;;;;;16.33;11.32;;;;;;;0.04;61.12;100721.97;4304788;33;20139;-76
2024/01/20 00:55:49;;;;;;;17.00;10.20;;;;;;;-0.31;62.01;100718.94;4304333;33;20159;-76
2024/01/20 00:58:19;;;;;;;18.75;13.10;;;;;;;-0.21;62.06;100727.50;4304471;33;20163;-76
2024/01/20 01:00:48;;;;;;;15.80;12.02;;;;;;;-0.18;61.93;100734.41;4304235;33;20166;-76
2024/01/20 01:03:22;;;;;;;24.65;11.30;;;;;;;-0.07;61.42;100737.75;4303819;33;20501;-76
2024/01/20 01:05:52;;;;;;;14.48;11.48;;;;;;;-0.21;61.84;100734.44;4303833;33;20160;-76
2024/01/20 01:08:21;;;;;;;16.37;12.45;;;;;;;-0.15;61.88;100744.81;4303798;33;20263;-76
2024/01/20 01:10:50;;;;;;;21.00;12.27;;;;;;;-0.12;61.83;100753.44;4303546;33;20425;-77
2024/01/20 01:13:20;;;;;;;20.05;12.23;;;;;;;0.05;61.24;100749.78;4298742;28;20172;-76
2024/01/20 01:15:50;;;;;;;20.05;12.43;;;;;;;0.11;61.02;100766.16;4288358;33;20493;-77
2024/01/20 01:18:25;;;;;;;22.55;11.10;;;;;;;0.29;60.61;100764.22;4288417;33;20164;-76
2024/01/20 01:20:55;;;;;;;20.70;11.18;;;;;;;-0.08;61.29;100762.97;4289168;33;20202;-77
2024/01/20 01:23:24;;;;;;;17.02;11.10;;;;;;;-0.07;61.50;100769.03;4289272;33;20155;-76
2024/01/20 01:25:54;;;;;;;16.33;12.15;;;;;;;-0.09;61.58;100757.75;4288803;33;20435;-76
2024/01/20 01:28:24;;;;;;;14.73;11.82;;;;;;;-0.19;61.85;100767.41;4289324;33;20152;-76
2024/01/20 01:31:01;;;;;;;20.20;11.35;;;;;;;-0.29;62.02;100768.38;4288859;33;20136;-76
2024/01/20 01:33:32;;;;;;;18.10;11.98;;;;;;;-0.09;61.48;100766.41;4288836;33;20427;-76
2024/01/20 01:36:01;;;;;;;22.65;12.50;;;;;;;-0.22;61.83;100769.19;4288946;33;20422;-76
2024/01/20 01:38:30;;;;;;;16.23;12.65;;;;;;;-0.53;62.79;100761.69;4289194;33;20172;-76
2024/01/20 01:40:59;;;;;;;17.62;11.40;;;;;;;-0.42;62.68;100759.84;4288762;33;20140;-76
2024/01/20 01:43:29;;;;;;;16.12;12.30;;;;;;;-0.21;62.02;100763.97;4292923;28;20148;-76
2024/01/20 01:46:05;;;;;;;18.48;12.23;;;;;;;-0.25;62.11;100772.69;4288055;33;20167;-76
2024/01/20 01:48:36;;;;;;;17.10;12.02;;;;;;;-0.17;62.20;100777.81;4288092;33;20502;-76
2024/01/20 01:51:05;;;;;;;21.73;11.77;;;;;;;-0.10;61.60;100762.09;4288636;33;20139;-76
2024/01/20 01:53:35;;;;;;;15.05;11.00;;;;;;;-0.14;61.88;100767.38;4288794;33;20433;-76
2024/01/20 01:56:12;;;;;;;17.02;10.90;;;;;;;-0.31;62.05;100762.34;4289108;33;20505;-75
2024/01/20 01:58:43;;;;;;;19.08;14.05;;;;;;;-0.25;61.88;100770.09;4288679;33;20135;-75
2024/01/20 02:01:12;;;;;;;17.55;12.23;;;;;;;-0.27;61.82;100775.31;4287625;33;20191;-75
2024/01/20 02:03:45;;;;;;;15.45;11.00;;;;;;;-0.19;61.47;100780.44;4282936;33;20163;-76
2024/01/20 02:06:16;;;;;;;21.73;12.18;;;;;;;-0.24;61.83;100782.22;4288572;33;20147;-75
2024/01/20 02:08:45;;;;;;;19.30;12.73;;;;;;;-0.04;61.15;100789.81;4288706;33;20148;-76
2024/01/20 02:11:15;;;;;;;19.52;12.05;;;;;;;-0.03;60.83;100786.34;4289050;33;20144;-75
2024/01/20 02:13:44;;;;;;;17.60;11.20;;;;;;;0.28;60.02;100785.94;4293024;28;20221;-75
2024/01/20 02:16:13;;;;;;;17.35;11.63;;;;;;;0.16;59.96;100784.34;4288298;33;20171;-75
2024/01/20 02:18:44;;;;;;;17.15;11.02;;;;;;;0.11;60.21;100797.44;4288727;33;20171;-75
2024/01/20 02:21:13;;;;;;;19.00;12.20;;;;;;;0.21;60.20;100796.47;4289063;33;20294;-75
2024/01/20 02:23:48;;;;;;;17.58;10.88;;;;;;;0.12;60.19;100799.19;4288715;33;20168;-75
2024/01/20 02:26:22;;;;;;;16.50;11.70;;;;;;;0.01;60.34;100797.59;4289085;33;20461;-75
2024/01/20 02:28:54;;;;;;;16.00;10.55;;;;;;;0.08;60.57;100805.31;4288748;33;20183;-75
2024/01/20 02:31:23;;;;;;;15.60;11.35;;;;;;;0.05;60.68;100807.09;4288604;33;20198;-75
2024/01/20 02:33:52;;;;;;;19.35;12.20;;;;;;;-0.02;60.71;100804.56;4288520;33;20159;-75
2024/01/20 02:36:22;;;;;;;12.68;10.65;;;;;;;-0.14;61.16;100809.03;4288715;33;20151;-75
2024/01/20 02:38:53;;;;;;;13.35;10.80;;;;;;;-0.31;61.40;100817.03;4288659;33;20300;-75
2024/01/20 02:41:25;;;;;;;22.20;12.30;;;;;;;-0.33;61.72;100808.38;4288594;33;20143;-75
2024/01/20 02:43:54;;;;;;;17.23;12.55;;;;;;;-0.44;62.00;100810.22;4292310;28;20560;-75
2024/01/20 02:46:27;;;;;;;18.77;12.13;;;;;;;-0.42;61.92;100804.13;4287304;33;20218;-75
2024/01/20 02:48:56;;;;;;;;;;;;;;;-0.55;62.43;100810.34;4283541;33;20819;-75
2024/01/20 02:51:26;;;;;;;15.45;10.70;;;;;;;-0.40;62.18;100811.91;4288372;33;20050;-75
2024/01/20 02:53:57;;;;;;;18.02;12.05;;;;;;;-0.18;61.69;100813.41;4288024;33;20140;-75
2024/01/20 02:56:27;;;;;;;23.98;13.10;;;;;;;-0.21;61.75;100812.59;4287555;33;20167;-75
2024/01/20 02:58:56;;;;;;;22.08;14.35;;;;;;;-0.19;61.65;100821.25;4288201;33;20194;-75
2024/01/20 03:01:28;;;;;;;16.10;11.75;;;;;;;-0.28;62.15;100822.19;4288033;33;20151;-75
2024/01/20 03:03:57;;;;;;;16.75;12.43;;;;;;;-0.26;61.98;100820.44;4288057;33;20152;-75
2024/01/20 03:06:26;;;;;;;20.20;12.35;;;;;;;-0.17;61.77;100822.94;4286967;33;20445;-75
2024/01/20 03:08:57;;;;;;;23.17;14.80;;;;;;;-0.07;61.50;100819.38;4288340;33;20259;-75
2024/01/20 03:11:26;;;;;;;21.45;16.00;;;;;;;-0.22;61.86;100827.34;4288362;33;20175;-75
2024/01/20 03:13:55;;;;;;;22.58;16.33;;;;;;;-0.13;61.72;100822.03;4292323;28;20163;-75
2024/01/20 03:16:24;;;;;;;18.73;14.35;;;;;;;0.02;61.31;100814.94;4287631;33;20148;-75
2024/01/20 03:18:56;;;;;;;18.55;14.60;;;;;;;0.04;61.25;100818.38;4287955;33;20520;-75
2024/01/20 03:21:25;;;;;;;15.02;12.70;;;;;;;-0.12;61.72;100834.22;4288384;33;20183;-75
2024/01/20 03:23:55;;;;;;;20.88;13.90;;;;;;;0.12;61.12;100834.78;4288459;33;20147;-75
2024/01/20 03:26:26;;;;;;;21.23;13.02;;;;;;;0.05;61.44;100835.75;4288666;33;20167;-75
2024/01/20 03:28:55;;;;;;;20.85;12.90;;;;;;;0.18;60.67;100851.22;4288401;33;20166;-75
2024/01/20 03:31:25;;;;;;;16.67;13.52;;;;;;;-0.05;60.89;100850.63;4288051;33;20159;-75
2024/01/20 03:33:56;;;;;;;18.25;12.45;;;;;;;0.05;60.55;100851.41;4288118;33;20198;-75
2024/01/20 03:36:26;;;;;;;18.05;14.05;;;;;;;0.35;59.84;100850.16;4288146;33;20167;-75
2024/01/20 03:38:59;;;;;;;16.98;11.85;;;;;;;0.29;59.87;100853.72;4288140;33;20156;-75
2024/01/20 03:41:29;;;;;;;13.70;10.52;;;;;;;0.15;60.58;100853.00;4288082;33;20167;-75
2024/01/20 03:43:59;;;;;;;22.65;13.25;;;;;;;0.12;60.43;100858.25;4291708;28;20140;-75
2024/01/20 03:46:31;;;;;;;15.25;11.48;;;;;;;-0.07;60.81;100862.81;4287465;33;20168;-75
2024/01/20 03:49:03;;;;;;;16.73;12.45;;;;;;;0.19;60.24;100870.31;4297045;33;20159;-75
2024/01/20 03:51:33;;;;;;;20.55;12.93;;;;;;;0.09;60.39;100876.53;4302411;33;20279;-75
2024/01/20 03:54:04;;;;;;;28.20;13.75;;;;;;;0.31;59.81;100879.75;4302143;33;20151;-75
2024/01/20 03:56:42;;;;;;;19.85;11.65;;;;;;;-0.04;60.24;100886.19;4302237;33;20140;-75
2024/01/20 03:59:11;;;;;;;21.98;12.43;;;;;;;0.50;58.70;100878.66;4302452;33;20466;-75
2024/01/20 04:01:41;;;;;;;19.55;12.00;;;;;;;0.37;59.08;100879.69;4301993;33;20154;-75
2024/01/20 04:04:10;;;;;;;14.13;11.95;;;;;;;0.34;58.96;100879.72;4302010;33;20148;-75
2024/01/20 04:06:44;;;;;;;23.17;12.70;;;;;;;0.22;59.40;100880.72;4302070;33;20163;-75
2024/01/20 04:09:14;;;;;;;17.27;12.30;;;;;;;0.35;59.20;100873.63;4303711;33;20151;-75
2024/01/20 04:11:47;;;;;;;20.37;13.13;;;;;;;0.26;59.46;100881.56;4290558;33;20178;-75
2024/01/20 04:14:16;;;;;;;16.27;11.77;;;;;;;0.33;59.06;100886.69;4300493;28;20147;-75
2024/01/20 04:16:45;;;;;;;22.77;13.73;;;;;;;0.19;60.14;100894.63;4288915;33;20767;-75
2024/01/20 04:19:15;;;;;;;19.40;13.32;;;;;;;0.00;60.77;100903.56;4275515;33;20152;-75
2024/01/20 04:21:45;;;;;;;20.33;12.32;;;;;;;0.10;60.43;100892.16;4275257;33;20163;-75
2024/01/20 04:24:14;;;;;;;18.60;11.77;;;;;;;0.10;60.08;100888.69;4275508;33;20156;-75
2024/01/20 04:26:43;;;;;;;16.55;12.02;;;;;;;0.03;60.35;100887.87;4275317;33;20526;-75
2024/01/20 04:29:14;;;;;;;17.75;12.43;;;;;;;-0.33;61.30;100887.34;4275591;33;20147;-75
2024/01/20 04:31:45;;;;;;;19.62;12.70;;;;;;;-0.31;61.37;100885.59;4275327;33;20156;-75
2024/01/20 04:34:14;;;;;;;18.25;12.73;;;;;;;-0.12;60.93;100875.88;4275275;33;20167;-75
2024/01/20 04:36:44;;;;;;;22.95;12.43;;;;;;;-0.38;61.58;100877.87;4275225;33;20144;-75
2024/01/20 04:39:13;;;;;;;15.35;10.65;;;;;;;-0.54;61.89;100879.72;4275008;33;20148;-75
2024/01/20 04:41:42;;;;;;;20.60;12.35;;;;;;;-0.54;61.69;100877.13;4274831;33;20438;-75
2024/01/20 04:44:11;;;;;;;19.27;12.23;;;;;;;-0.60;61.83;100887.56;4292340;28;20175;-75
2024/01/20 04:46:42;;;;;;;21.75;14.10;;;;;;;-0.39;61.57;100897.84;4288726;33;20530;-75
2024/01/20 04:49:14;;;;;;;18.37;12.10;;;;;;;-0.38;61.41;100909.97;4299989;33;20531;-75
2024/01/20 04:51:43;;;;;;;21.37;12.00;;;;;;;-0.55;62.10;100910.09;4303572;33;20160;-75
2024/01/20 04:54:12;;;;;;;17.70;12.40;;;;;;;-0.11;60.93;100910.59;4303599;33;20147;-75
2024/01/20 04:56:42;;;;;;;16.15;11.50;;;;;;;-0.26;61.03;100915.06;4314368;33;20230;-75
2024/01/20 04:59:12;;;;;;;17.27;13.55;;;;;;;-0.32;61.34;100919.47;4315515;33;20199;-75
2024/01/20 05:01:48;;;;;;;20.48;12.48;;;;;;;-0.26;61.09;100930.69;4317897;33;20151;-75
2024/01/20 05:04:18;;;;;;;21.98;12.93;;;;;;;-0.35;61.43;100930.78;4318074;33;20520;-75
2024/01/20 05:06:48;;;;;;;20.98;11.60;;;;;;;-0.31;61.21;100937.69;4317805;33;20139;-75
2024/01/20 05:09:18;;;;;;;18.70;13.52;;;;;;;-0.54;61.94;100945.66;4317938;33;20163;-75
2024/01/20 05:11:47;;;;;;;19.17;13.65;;;;;;;-0.90;63.03;100949.37;4318116;33;20168;-75
2024/01/20 05:14:16;;;;;;;17.65;12.90;;;;;;;-0.26;61.04;100942.84;4295518;28;20155;-75
2024/01/20 05:16:53;;;;;;;17.83;12.27;;;;;;;-0.37;61.31;100950.75;4288406;33;20140;-75
2024/01/20 05:19:22;;;;;;;19.75;13.23;;;;;;;-0.45;61.57;100954.28;4288481;33;20536;-75
2024/01/20 05:21:51;;;;;;;19.23;13.88;;;;;;;-0.08;60.58;100955.72;4288866;33;20179;-74
2024/01/20 05:24:21;;;;;;;17.50;11.70;;;;;;;-0.09;60.60;100953.13;4276003;33;20163;-75
2024/01/20 05:26:50;;;;;;;17.83;11.43;;;;;;;-0.04;60.04;100954.84;4288740;33;20494;-75
2024/01/20 05:29:20;;;;;;;19.58;13.62;;;;;;;0.35;59.26;100950.09;4289397;33;20490;-75
2024/01/20 05:31:53;;;;;;;16.85;13.18;;;;;;;0.28;59.41;100957.97;4289069;33;20163;-75
2024/01/20 05:34:23;;;;;;;19.30;12.90;;;;;;;0.32;59.34;100957.06;4288843;33;20187;-75
2024/01/20 05:36:53;;;;;;;17.70;11.90;;;;;;;0.35;59.21;100959.66;4288789;33;20204;-74
2024/01/20 05:39:22;;;;;;;20.73;13.45;;;;;;;0.40;58.93;100958.75;4288677;33;20183;-75
2024/01/20 05:41:51;;;;;;;19.20;14.00;;;;;;;0.04;60.16;100959.97;4288762;33;20207;-75
2024/01/20 05:44:23;;;;;;;17.42;12.18;;;;;;;-0.08;60.47;100963.56;4293370;28;20629;-75
2024/01/20 05:46:55;;;;;;;19.70;12.27;;;;;;;-0.15;60.78;100963.63;4287173;33;20147;-75
2024/01/20 05:49:25;;;;;;;18.92;13.15;;;;;;;-0.22;61.24;100967.12;4300691;33;20163;-75
2024/01/20 05:51:54;;;;;;;25.55;13.82;;;;;;;-0.20;61.23;100973.19;4303271;33;20167;-75
2024/01/20 05:54:23;;;;;;;17.27;13.62;;;;;;;-0.38;61.67;100984.62;4303564;33;20175;-75
2024/01/20 05:56:52;;;;;;;26.20;14.48;;;;;;;-0.21;61.21;100982.75;4303116;33;20243;-75
2024/01/20 05:59:22;;;;;;;25.77;14.27;;;;;;;-0.31;61.41;100988.91;4303604;33;20143;-75
2024/01/20 06:01:51;;;;;;;23.87;14.80;;;;;;;-0.40;61.72;101008.06;4303368;33;20152;-75
2024/01/20 06:04:25;;;;;;;20.70;13.48;;;;;;;-0.34;61.56;101009.75;4303354;33;20151;-75
2024/01/20 06:06:55;;;;;;;;;;;;;;;-0.13;60.93;101011.34;4303965;33;20501;-75
2024/01/20 06:09:24;;;;;;;20.23;13.82;;;;;;;-0.34;61.36;101008.03;4303563;33;20353;-75
2024/01/20 06:11:53;;;;;;;33.72;14.52;;;;;;;-0.30;61.43;101014.94;4303260;33;20159;-75
2024/01/20 06:14:22;;;;;;;21.62;13.68;;;;;;;-0.31;61.24;101022.78;4294036;28;20208;-75
2024/01/20 06:16:52;;;;;;;18.30;12.90;;;;;;;-0.29;61.14;101027.06;4288221;33;20135;-75
2024/01/20 06:19:23;;;;;;;19.90;14.18;;;;;;;-0.62;62.23;101029.91;4288471;33;20152;-75
2024/01/20 06:21:54;;;;;;;27.23;14.85;;;;;;;-0.95;63.10;101034.41;4289029;33;20182;-75
2024/01/20 06:24:24;;;;;;;25.80;14.02;;;;;;;-0.86;62.69;101034.34;4289122;33;20435;-75
2024/01/20 06:26:53;;;;;;;17.05;13.43;;;;;;;-0.64;61.99;101036.84;4288823;33;20408;-75
2024/01/20 06:29:22;;;;;;;17.02;13.50;;;;;;;-0.75;62.46;101042.97;4289115;33;20144;-75
2024/01/20 06:31:52;;;;;;;21.77;13.52;;;;;;;-0.62;61.94;101038.56;4287816;33;20140;-75
2024/01/20 06:34:24;;;;;;;16.42;12.80;;;;;;;-0.60;61.78;101043.75;4288725;33;20787;-75
2024/01/20 06:36:56;;;;;;;24.48;14.35;;;;;;;-0.70;62.14;101037.75;4288612;33;20176;-75
2024/01/20 06:39:29;;;;;;;17.75;12.63;;;;;;;-0.88;62.59;101054.28;4288751;33;20144;-75
2024/01/20 06:41:57;;;;;;;20.80;13.45;;;;;;;-0.10;60.54;101048.66;4288580;33;20144;-75
2024/01/20 06:44:27;;;;;;;22.70;13.45;;;;;;;-0.70;61.54;101065.50;4292925;28;20521;-75
2024/01/20 06:46:59;;;;;;;22.83;14.98;;;;;;;-0.68;62.01;101053.34;4288100;33;20257;-75
2024/01/20 06:49:28;;;;;;;19.37;13.30;;;;;;;-0.47;61.38;101063.66;4300430;33;20167;-75
2024/01/20 06:51:59;;;;;;;18.80;12.77;;;;;;;-0.41;61.38;101070.56;4303317;33;20509;-75
2024/01/20 06:54:28;;;;;;;31.40;16.52;;;;;;;-0.52;61.69;101074.06;4303001;33;20416;-75
2024/01/20 06:57:01;;;;;;;32.95;21.52;;;;;;;-0.28;60.93;101077.41;4303104;33;20643;-75
2024/01/20 06:59:29;;;;;;;18.50;13.75;;;;;;;-0.17;60.84;101086.03;4303563;33;20151;-75
2024/01/20 07:02:00;;;;;;;17.45;12.30;;;;;;;0.38;59.39;101088.22;4303206;33;20188;-75
2024/01/20 07:04:30;;;;;;;17.55;11.25;;;;;;;0.45;58.48;101094.28;4303160;33;20171;-75
2024/01/20 07:07:02;;;;;;;17.83;12.27;;;;;;;0.76;57.82;101096.59;4303044;33;20143;-75
2024/01/20 07:09:31;;;;;;;16.40;10.93;;;;;;;1.18;56.56;101105.69;4303102;33;20155;-75
2024/01/20 07:12:01;;;;;;;29.95;13.32;;;;;;;1.51;55.35;101109.66;4299143;28;20168;-75
2024/01/20 07:14:31;;;;;;;16.62;11.18;;;;;;;1.65;54.84;101109.47;4292869;28;20481;-75
2024/01/20 07:17:00;;;;;;;15.80;11.52;;;;;;;2.35;53.21;101113.69;4287703;33;20402;-75
2024/01/20 07:19:29;;;;;;;15.43;9.75;;;;;;;2.81;51.95;101114.63;4287115;33;20159;-75
2024/01/20 07:21:59;;;;;;;18.73;11.70;;;;;;;3.29;50.33;101112.88;4288181;33;20148;-75
2024/01/20 07:24:29;;;;;;;20.88;11.55;;;;;;;3.13;50.51;101119.31;4288163;33;20164;-75
2024/01/20 07:26:58;;;;;;;16.23;10.20;;;;;;;3.15;50.08;101127.97;4287977;33;20159;-75
2024/01/20 07:29:28;;;;;;;18.55;13.40;;;;;;;2.67;51.32;101122.75;4288108;33;20484;-75
2024/01/20 07:32:01;;;;;;;19.70;11.85;;;;;;;2.36;52.38;101128.47;4288063;33;20163;-75
2024/01/20 07:34:35;;;;;;;19.17;11.15;;;;;;;1.80;54.13;101138.03;4288160;33;20155;-72
2024/01/20 07:37:05;;;;;;;19.92;11.93;;;;;;;2.08;65.22;101148.94;4287955;33;20172;-73
2024/01/20 07:39:36;;;;;;;19.10;12.13;;;;;;;3.59;70.91;101158.53;4287949;33;20171;-73
2024/01/20 07:42:08;;;;;;;15.48;10.88;;;;;;;4.96;60.50;101148.38;4287690;33;20164;-73
2024/01/20 07:44:40;;;;;;;14.50;10.15;;;;;;;4.94;47.82;101140.50;4293502;28;20133;-73
2024/01/20 07:47:15;;;;;;;14.63;11.82;;;;;;;4.91;46.98;101137.97;4289339;33;20159;-74
2024/01/20 07:49:44;;;;;;;15.48;11.30;;;;;;;4.65;47.47;101156.16;4289357;33;20155;-73
2024/01/20 07:52:13;;;;;;;14.45;11.20;;;;;;;4.36;48.10;101155.09;4289538;33;20159;-73
2024/01/20 07:54:44;;;;;;;19.15;11.73;;;;;;;4.21;48.37;101160.69;4289971;33;20175;-73
2024/01/20 07:57:15;;;;;;;14.70;12.02;;;;;;;4.25;48.40;101164.97;4289970;33;20156;-73
2024/01/20 07:59:44;;;;;;;18.37;12.93;;;;;;;4.18;48.78;101172.13;4290125;33;20144;-73
2024/01/20 08:02:14;;;;;;;22.77;14.10;;;;;;;4.41;48.38;101168.97;4290118;33;20147;-74
2024/01/20 08:04:47;;;;;;;15.43;12.07;;;;;;;4.39;48.22;101169.91;4289779;33;20445;-74
2024/01/20 08:07:17;;;;;;;17.92;11.12;;;;;;;5.14;47.22;101168.87;4289285;33;20144;-74
2024/01/20 08:09:47;;;;;;;18.02;11.88;;;;;;;5.82;45.43;101167.00;4289542;33;20143;-74
2024/01/20 08:12:23;;;;;;;17.17;11.43;;;;;;;5.99;44.49;101171.81;4280351;28;20132;-74
2024/01/20 08:14:53;;;;;;;16.33;11.02;;;;;;;6.10;43.63;101161.81;4288684;33;20227;-74
2024/01/20 08:17:22;;;;;;;12.25;10.50;;;;;;;6.79;43.14;101165.72;4288852;33;20139;-74
2024/01/20 08:19:51;;;;;;;15.27;11.57;;;;;;;7.30;41.74;101169.25;4288856;33;20156;-74
2024/01/20 08:22:20;;;;;;;24.73;13.75;;;;;;;7.80;40.24;101158.63;4289300;33;20143;-74
2024/01/20 08:24:51;;;;;;;17.65;11.95;;;;;;;8.65;38.91;101161.50;4289456;33;20159;-74
2024/01/20 08:27:20;;;;;;;18.40;12.07;;;;;;;9.22;37.87;101162.59;4289472;33;20163;-74
2024/01/20 08:29:49;;;;;;;21.05;13.40;;;;;;;9.79;36.66;101159.13;4289542;33;20163;-74
2024/01/20 08:32:18;;;;;;;17.12;11.07;;;;;;;10.10;35.68;101158.56;4289688;33;20156;-74
2024/01/20 08:34:48;;;;;;;15.43;10.25;;;;;;;10.37;35.42;101163.50;4289778;33;20166;-74
2024/01/20 08:37:17;;;;;;;18.70;10.48;;;;;;;10.63;34.31;101164.88;4289104;33;20157;-74
2024/01/20 08:39:48;;;;;;;14.90;11.47;;;;;;;10.99;34.13;101175.44;4289181;33;20437;-74
2024/01/20 08:42:20;;;;;;;18.40;10.95;;;;;;;11.41;33.15;101173.31;4294277;28;20155;-74
2024/01/20 08:44:50;;;;;;;16.23;10.88;;;;;;;11.32;32.93;101166.69;4287513;33;20246;-74
2024/01/20 08:47:23;;;;;;;14.43;11.48;;;;;;;11.15;33.56;101170.22;4288829;33;20186;-74
2024/01/20 08:49:56;;;;;;;12.88;9.57;;;;;;;10.95;33.80;101176.53;4288075;33;20144;-74
2024/01/20 08:52:27;;;;;;;14.00;10.17;;;;;;;11.09;33.82;101167.88;4288900;33;20175;-75
2024/01/20 08:54:56;;;;;;;19.77;11.75;;;;;;;11.32;33.16;101169.31;4288165;33;20164;-76
2024/01/20 08:57:31;;;;;;;15.55;11.10;;;;;;;11.33;33.16;101163.09;4289023;33;20159;-75
2024/01/20 09:00:00;;;;;;;15.75;10.85;;;;;;;11.32;33.40;101169.31;4288901;33;20144;-76
2024/01/20 09:02:31;;;;;;;13.18;10.18;;;;;;;11.40;33.01;101169.78;4276409;33;20172;-76
2024/01/20 09:05:00;;;;;;;18.17;10.68;;;;;;;11.64;32.88;101183.59;4288443;33;20468;-76
2024/01/20 09:07:30;;;;;;;13.45;10.02;;;;;;;11.72;32.84;101183.16;4275951;33;20148;-75
2024/01/20 09:10:00;;;;;;;12.85;9.98;;;;;;;11.65;32.53;101181.78;4290067;33;20218;-76
2024/01/20 09:12:30;;;;;;;17.35;10.13;;;;;;;11.76;32.75;101190.03;4305554;28;20159;-74
2024/01/20 09:15:00;;;;;;;21.62;10.23;;;;;;;11.10;33.54;101192.63;4274908;33;20160;-76
2024/01/20 09:17:30;;;;;;;15.75;10.07;;;;;;;11.06;33.62;101199.87;4275379;33;20152;-75
2024/01/20 09:20:03;;;;;;;13.90;9.75;;;;;;;11.27;33.70;101206.72;4274417;33;20167;-75
2024/01/20 09:22:32;;;;;;;14.77;10.95;;;;;;;11.02;34.15;101204.47;4273346;33;20139;-75
2024/01/20 09:25:03;;;;;;;13.60;9.27;;;;;;;10.73;33.99;101200.63;4274432;33;20144;-75
2024/01/20 09:27:34;;;;;;;15.52;10.95;;;;;;;10.25;35.19;101199.37;4274338;33;20159;-75
2024/01/20 09:30:05;;;;;;;13.20;9.38;;;;;;;10.09;35.66;101195.69;4274457;33;20155;-75
2024/01/20 09:32:38;;;;;;;11.65;9.68;;;;;;;9.83;36.41;101205.72;4274469;33;20136;-75
2024/01/20 09:35:08;;;;;;;15.52;10.55;;;;;;;9.45;36.77;101210.06;4274957;33;20141;-75
2024/01/20 09:37:38;;;;;;;13.95;9.88;;;;;;;9.78;36.46;101205.06;4274662;33;20172;-75
2024/01/20 09:40:08;;;;;;;14.25;10.38;;;;;;;9.39;36.67;101212.13;4274396;33;20175;-74
2024/01/20 09:42:40;;;;;;;16.95;10.75;;;;;;;9.85;36.50;101211.78;4278760;28;20140;-74
2024/01/20 09:45:09;;;;;;;14.10;9.13;;;;;;;10.37;35.36;101202.38;4285427;33;20144;-74
2024/01/20 09:47:38;;;;;;;15.25;10.05;;;;;;;9.98;35.45;101200.66;4288088;33;20163;-75
2024/01/20 09:50:08;;;;;;;14.32;9.27;;;;;;;10.04;35.60;101198.56;4288608;33;20155;-75
2024/01/20 09:52:50;;;;;;;14.20;9.68;;;;;;;10.03;36.11;101191.56;4288718;33;20144;-75
2024/01/20 09:55:21;;;;;;;12.37;9.82;;;;;;;10.26;35.67;101197.62;4288691;33;20147;-75
2024/01/20 09:57:53;;;;;;;17.23;10.73;;;;;;;9.98;35.94;101187.41;4288580;33;20155;-75
2024/01/20 10:00:24;;;;;;;13.30;10.02;;;;;;;9.97;36.33;101188.31;4288400;33;20171;-75
2024/01/20 10:03:06;;;;;;;14.45;9.32;;;;;;;10.07;36.01;101184.34;4288371;33;20511;-75
2024/01/20 10:05:41;;;;;;;14.50;9.70;;;;;;;10.38;35.15;101183.78;4290979;33;20139;-75
2024/01/20 10:08:11;;;;;;;12.05;9.30;;;;;;;10.41;34.83;101186.25;4303287;33;20151;-75
2024/01/20 10:10:40;;;;;;;11.12;8.68;;;;;;;10.43;34.51;101188.84;4307991;33;20154;-75
2024/01/20 10:13:14;;;;;;;16.23;8.27;;;;;;;10.08;35.17;101192.19;4311555;28;20183;-75
2024/01/20 10:15:43;;;;;;;13.77;9.10;;;;;;;9.73;35.33;101196.47;4288260;33;20147;-75
2024/01/20 10:18:13;;;;;;;15.15;9.20;;;;;;;10.10;35.09;101194.78;4287277;33;20219;-75
2024/01/20 10:20:45;;;;;;;10.82;7.90;;;;;;;10.37;34.74;101197.94;4288530;33;20498;-75
2024/01/20 10:23:18;;;;;;;14.87;9.55;;;;;;;10.44;35.04;101191.41;4288793;33;20220;-75
2024/01/20 10:26:00;;;;;;;18.95;9.00;;;;;;;10.81;34.26;101192.28;4288612;33;20139;-74
2024/01/20 10:28:31;;;;;;;11.95;8.90;;;;;;;11.02;34.13;101195.66;4288458;33;20191;-74
2024/01/20 10:31:06;;;;;;;11.82;8.73;;;;;;;11.18;33.86;101196.59;4288685;33;20204;-75
2024/01/20 10:33:42;;;;;;;14.35;9.00;;;;;;;11.27;33.46;101189.94;4288588;33;20160;-74
2024/01/20 10:36:17;;;;;;;16.85;10.48;;;;;;;11.28;33.57;101189.00;4288478;33;20186;-75
2024/01/20 10:38:50;;;;;;;12.35;8.00;;;;;;;11.31;33.69;101184.41;4288478;33;20520;-74
2024/01/20 10:41:24;;;;;;;12.00;8.40;;;;;;;11.33;33.54;101187.84;4288887;33;20274;-74
2024/01/20 10:44:02;;;;;;;13.00;8.38;;;;;;;11.55;32.86;101182.25;4292746;28;20254;-74
2024/01/20 10:46:37;;;;;;;12.95;9.15;;;;;;;11.32;32.95;101188.78;4287090;33;20447;-75
2024/01/20 10:49:11;;;;;;;12.13;7.82;;;;;;;11.02;33.75;101196.50;4270338;33;20206;-74
2024/01/20 10:51:42;;;;;;;11.68;7.70;;;;;;;11.02;33.05;101190.34;4281065;33;20147;-74
2024/01/20 10:54:13;;;;;;;18.20;8.40;;;;;;;10.74;34.01;101199.69;4288448;33;20147;-74
2024/01/20 10:56:43;;;;;;;18.20;9.35;;;;;;;10.31;34.49;101192.94;4288424;33;20187;-74
2024/01/20 10:59:17;;;;;;;11.25;9.25;;;;;;;10.43;34.53;101192.34;4288422;33;20462;-74
2024/01/20 11:01:47;;;;;;;15.82;9.75;;;;;;;10.34;34.83;101177.78;4288387;33;20423;-74
2024/01/20 11:04:19;;;;;;;13.50;9.48;;;;;;;10.04;35.59;101182.69;4288189;33;20178;-74
2024/01/20 11:06:53;;;;;;;18.60;11.43;;;;;;;10.50;35.57;101184.97;4288233;33;20135;-74
2024/01/20 11:09:23;;;;;;;18.00;11.18;;;;;;;10.21;36.12;101183.69;4288212;33;20400;-74
2024/01/20 11:12:02;;;;;;;13.93;10.68;;;;;;;10.65;35.62;101188.66;4300483;33;20191;-74
2024/01/20 11:14:34;;;;;;;11.88;9.05;;;;;;;10.63;34.95;101195.84;4294535;28;20167;-74
2024/01/20 11:17:11;;;;;;;24.00;10.77;;;;;;;10.93;46.36;101191.69;4273935;33;20151;-75
2024/01/20 11:19:40;;;;;;;19.23;11.20;;;;;;;11.72;40.96;101194.66;4285291;33;20203;-74
2024/01/20 11:22:33;;;;;;;15.40;10.32;;;;;;;12.14;36.62;101187.13;4288627;33;20151;-75
2024/01/20 11:25:05;;;;;;;11.90;9.35;;;;;;;12.52;37.12;101185.81;4288246;33;20437;-74
2024/01/20 11:27:44;;;;;;;12.55;9.07;;;;;;;12.34;32.69;101176.22;4288662;33;20143;-75
2024/01/20 11:30:25;;;;;;;14.50;9.15;;;;;;;12.13;32.79;101177.44;4288002;33;20452;-74